Time;durP1;ratioP1;P1;durP2;ratioP2;P2;SDS_P1;SDS_P2;PMS_P1;PMS_P2;Temp;Humidity;BMP_temperature;BMP_pressure;BME280_temperature;BME280_humidity;BME280_pressure;Samples;Min_cycle;Max_cycle;Signal;HPM_P1;HPM_P2
2020/12/05 00:01:51;;;;;;;0.65;0.13;;;5.40;56.80;;;;;;5027538;28;80647;-62
2020/12/05 00:04:17;;;;;;;1.38;0.40;;;5.40;57.00;;;;;;5027538;28;80879;-64
2020/12/05 00:06:43;;;;;;;1.33;0.30;;;5.40;56.90;;;;;;5026375;28;80405;-63
2020/12/05 00:09:09;;;;;;;2.20;0.73;;;5.40;57.00;;;;;;5027826;28;80569;-63
2020/12/05 00:11:35;;;;;;;1.35;0.38;;;5.40;57.10;;;;;;5028073;28;80692;-64
2020/12/05 00:14:01;;;;;;;1.80;0.52;;;5.30;57.20;;;;;;5026408;28;80022;-63
2020/12/05 00:16:29;;;;;;;0.85;0.30;;;5.30;57.20;;;;;;5026252;28;82547;-63
2020/12/05 00:18:55;;;;;;;1.02;0.30;;;5.20;57.20;;;;;;5028359;28;79631;-64
2020/12/05 00:21:22;;;;;;;1.17;0.55;;;5.20;57.40;;;;;;5025437;28;82605;-63
2020/12/05 00:23:49;;;;;;;1.27;0.35;;;5.10;57.50;;;;;;5025780;28;83159;-63
2020/12/05 00:26:22;;;;;;;1.95;0.30;;;5.20;57.40;;;;;;5025666;28;81388;-63
2020/12/05 00:28:48;;;;;;;1.17;0.40;;;5.20;57.50;;;;;;5025955;28;81726;-63
2020/12/05 00:31:20;;;;;;;1.23;0.30;;;5.10;57.50;;;;;;5025971;28;80555;-62
2020/12/05 00:33:46;;;;;;;1.92;0.52;;;5.00;57.60;;;;;;5026547;28;81806;-62
2020/12/05 00:36:15;;;;;;;1.27;0.30;;;5.00;57.60;;;;;;5027881;28;80317;-62
2020/12/05 00:38:41;;;;;;;0.77;0.22;;;5.00;57.70;;;;;;5026209;28;79817;-62
2020/12/05 00:41:07;;;;;;;2.78;0.30;;;4.90;57.80;;;;;;5026603;28;82163;-63
2020/12/05 00:43:36;;;;;;;0.85;0.20;;;4.90;57.80;;;;;;5027712;28;80515;-62
2020/12/05 00:46:05;;;;;;;1.38;0.70;;;4.90;58.00;;;;;;5025981;28;82489;-62
2020/12/05 00:48:31;;;;;;;1.23;0.40;;;4.90;58.10;;;;;;5025688;28;81227;-64
2020/12/05 00:50:57;;;;;;;1.38;0.47;;;4.90;58.10;;;;;;5025390;28;82473;-63
2020/12/05 00:53:24;;;;;;;1.35;0.50;;;4.90;58.20;;;;;;5025874;28;81894;-63
2020/12/05 00:55:50;;;;;;;0.90;0.20;;;4.90;58.30;;;;;;5025631;28;82951;-63
2020/12/05 00:58:15;;;;;;;3.65;0.50;;;4.80;58.30;;;;;;5027291;28;81123;-64
2020/12/05 01:00:42;;;;;;;1.20;0.32;;;4.80;58.40;;;;;;5029358;28;80768;-63
2020/12/05 01:03:08;;;;;;;0.95;0.30;;;4.80;58.50;;;;;;5031064;28;80891;-62
2020/12/05 01:05:35;;;;;;;1.75;0.47;;;4.80;58.60;;;;;;5029354;28;83367;-63
2020/12/05 01:08:02;;;;;;;1.15;0.25;;;4.80;58.60;;;;;;5028465;28;81664;-62
2020/12/05 01:10:28;;;;;;;1.90;0.90;;;4.80;58.80;;;;;;5029202;28;80681;-63
2020/12/05 01:12:54;;;;;;;1.55;0.40;;;4.70;58.60;;;;;;5028504;28;82812;-63
2020/12/05 01:15:19;;;;;;;1.13;0.30;;;4.70;58.50;;;;;;5028935;28;82548;-63
2020/12/05 01:17:45;;;;;;;1.85;0.40;;;4.70;58.40;;;;;;5030559;28;80535;-62
2020/12/05 01:20:11;;;;;;;1.08;0.28;;;4.70;58.50;;;;;;5030496;28;80161;-63
2020/12/05 01:22:37;;;;;;;1.45;0.50;;;4.70;58.50;;;;;;5028791;28;80988;-62
2020/12/05 01:25:03;;;;;;;1.13;0.40;;;4.70;58.70;;;;;;5030088;28;80791;-63
2020/12/05 01:27:29;;;;;;;1.95;0.50;;;4.70;58.80;;;;;;5030174;28;80745;-64
2020/12/05 01:29:55;;;;;;;0.88;0.22;;;4.70;59.00;;;;;;5028797;28;80369;-63
2020/12/05 01:32:21;;;;;;;1.75;0.47;;;4.60;59.10;;;;;;5028461;28;79965;-65
2020/12/05 01:34:47;;;;;;;1.10;0.30;;;4.60;59.10;;;;;;5028227;28;82384;-62
2020/12/05 01:37:12;;;;;;;1.42;0.40;;;4.60;59.00;;;;;;5028359;28;81579;-63
2020/12/05 01:39:38;;;;;;;0.50;0.10;;;4.70;58.90;;;;;;5029224;28;81395;-63
2020/12/05 01:42:04;;;;;;;1.08;0.40;;;4.70;58.80;;;;;;5028510;28;83462;-63
2020/12/05 01:44:31;;;;;;;1.25;0.15;;;4.60;58.80;;;;;;5030121;28;80255;-64
2020/12/05 01:46:57;;;;;;;0.70;0.20;;;4.70;58.60;;;;;;5030506;28;81053;-62
2020/12/05 01:49:24;;;;;;;1.45;0.35;;;4.70;58.60;;;;;;5029845;28;79855;-63
2020/12/05 01:51:51;;;;;;;0.35;0.10;;;4.60;58.70;;;;;;5028385;28;79913;-63
2020/12/05 01:54:18;;;;;;;1.25;0.30;;;4.60;58.90;;;;;;5029940;28;80259;-62
2020/12/05 01:56:50;;;;;;;1.42;0.40;;;4.60;58.90;;;;;;5028374;28;81188;-63
2020/12/05 01:59:16;;;;;;;1.85;0.50;;;4.60;59.00;;;;;;5029626;28;80245;-63
2020/12/05 02:01:44;;;;;;;2.80;0.32;;;4.50;59.00;;;;;;5028240;28;80745;-64
2020/12/05 02:04:10;;;;;;;0.98;0.47;;;4.50;58.80;;;;;;5029717;28;80230;-63
2020/12/05 02:07:04;;;;;;;1.42;0.30;;;4.50;58.70;;;;;;5030110;28;81097;-65
2020/12/05 02:09:42;;;;;;;0.43;0.20;;;4.60;58.60;;;;;;5028094;28;80779;-62
2020/12/05 02:12:20;;;;;;;0.77;0.10;;;4.60;58.60;;;;;;5029096;28;80609;-63
2020/12/05 02:14:49;;;;;;;0.85;0.32;;;4.50;58.50;;;;;;5028091;28;82616;-63
2020/12/05 02:17:16;;;;;;;0.73;0.32;;;4.50;58.50;;;;;;5029343;28;80570;-63
2020/12/05 02:19:47;;;;;;;0.75;0.10;;;4.50;58.60;;;;;;5028400;28;80691;-63
2020/12/05 02:22:19;;;;;;;1.45;0.20;;;4.50;58.60;;;;;;5028747;28;81985;-62
2020/12/05 02:24:46;;;;;;;2.40;0.28;;;4.50;58.80;;;;;;5030890;28;79729;-69
2020/12/05 02:27:12;;;;;;;2.05;0.30;;;4.40;58.90;;;;;;5029419;28;82039;-63
2020/12/05 02:29:38;;;;;;;1.05;0.20;;;4.40;59.00;;;;;;5029417;28;83514;-63
2020/12/05 02:32:04;;;;;;;1.08;0.20;;;4.30;59.10;;;;;;5028925;28;79772;-63
2020/12/05 02:34:31;;;;;;;0.68;0.30;;;4.30;59.30;;;;;;5027731;28;80388;-62
2020/12/05 02:37:02;;;;;;;0.88;0.20;;;4.30;59.50;;;;;;5029529;28;80768;-62
2020/12/05 02:39:29;;;;;;;0.75;0.10;;;4.30;59.60;;;;;;5027432;28;82454;-63
2020/12/05 02:41:55;;;;;;;1.02;0.30;;;4.20;59.70;;;;;;5029615;28;80564;-63
2020/12/05 02:44:21;;;;;;;0.85;0.20;;;4.20;59.80;;;;;;5028112;28;80527;-62
2020/12/05 02:46:49;;;;;;;0.68;0.20;;;4.20;59.80;;;;;;5028024;28;82678;-64
2020/12/05 02:49:15;;;;;;;0.85;0.30;;;4.20;59.90;;;;;;5029056;28;80427;-63
2020/12/05 02:51:41;;;;;;;0.73;0.20;;;4.20;60.00;;;;;;5027223;28;81105;-68
2020/12/05 02:54:08;;;;;;;0.85;0.20;;;4.20;60.00;;;;;;5027932;28;80042;-62
2020/12/05 02:56:34;;;;;;;1.33;0.30;;;4.10;60.10;;;;;;5028871;28;80552;-63
2020/12/05 02:59:00;;;;;;;1.02;0.20;;;4.10;60.10;;;;;;5027841;28;82585;-64
2020/12/05 03:01:26;;;;;;;1.17;0.30;;;4.10;60.10;;;;;;5027129;28;83486;-63
2020/12/05 03:03:51;;;;;;;0.77;0.15;;;4.10;60.20;;;;;;5027246;28;82349;-62
2020/12/05 03:06:18;;;;;;;0.52;0.30;;;4.10;60.20;;;;;;5028716;28;80310;-62
2020/12/05 03:08:43;;;;;;;0.68;0.30;;;4.00;60.30;;;;;;5028485;28;80442;-62
2020/12/05 03:11:09;;;;;;;1.08;0.38;;;4.00;60.40;;;;;;5026577;28;82474;-62
2020/12/05 03:13:35;;;;;;;1.05;0.30;;;4.00;60.40;;;;;;5028644;28;80268;-62
2020/12/05 03:16:01;;;;;;;1.45;0.10;;;4.00;60.40;;;;;;5026928;28;80981;-61
2020/12/05 03:18:27;;;;;;;0.68;0.10;;;4.00;60.40;;;;;;5028580;28;80331;-62
2020/12/05 03:20:52;;;;;;;0.70;0.20;;;3.90;60.30;;;;;;5028427;28;80450;-62
2020/12/05 03:23:18;;;;;;;0.70;0.30;;;3.90;60.40;;;;;;5025980;28;82506;-62
2020/12/05 03:25:44;;;;;;;0.70;0.20;;;3.90;60.50;;;;;;5026718;28;81521;-62
2020/12/05 03:28:10;;;;;;;0.70;0.20;;;3.90;60.50;;;;;;5028023;28;83510;-64
2020/12/05 03:30:35;;;;;;;0.63;0.10;;;3.90;60.70;;;;;;5028667;28;80688;-62
2020/12/05 03:33:01;;;;;;;0.50;0.20;;;3.90;60.80;;;;;;5029624;28;79766;-63
2020/12/05 03:35:28;;;;;;;0.77;0.30;;;3.90;60.80;;;;;;5029174;28;80558;-63
2020/12/05 03:37:54;;;;;;;0.85;0.20;;;3.80;60.90;;;;;;5029784;28;80850;-63
2020/12/05 03:40:20;;;;;;;1.05;0.40;;;3.80;60.90;;;;;;5028495;28;82225;-63
2020/12/05 03:42:46;;;;;;;1.17;0.20;;;3.80;60.90;;;;;;5027582;28;83328;-63
2020/12/05 03:45:12;;;;;;;2.00;0.20;;;3.80;60.90;;;;;;5026856;28;81548;-62
2020/12/05 03:47:38;;;;;;;2.08;0.20;;;3.80;60.90;;;;;;5026487;28;80256;-63
2020/12/05 03:50:06;;;;;;;0.75;0.17;;;3.80;60.90;;;;;;5027003;28;80677;-63
2020/12/05 03:52:32;;;;;;;1.20;0.30;;;3.80;61.00;;;;;;5028166;28;79727;-62
2020/12/05 03:54:58;;;;;;;0.68;0.30;;;3.70;61.00;;;;;;5026376;28;83130;-62
2020/12/05 03:57:24;;;;;;;0.77;0.30;;;3.70;60.90;;;;;;5028309;28;79865;-63
2020/12/05 03:59:49;;;;;;;0.60;0.32;;;3.70;60.80;;;;;;5026420;28;82702;-63
2020/12/05 04:02:15;;;;;;;1.60;0.30;;;3.70;60.80;;;;;;5027981;28;80767;-63
2020/12/05 04:04:41;;;;;;;1.17;0.40;;;3.70;60.80;;;;;;5026480;28;81666;-62
2020/12/05 04:07:07;;;;;;;1.70;0.30;;;3.70;60.80;;;;;;5026518;28;80386;-63
2020/12/05 04:09:33;;;;;;;2.53;0.43;;;3.70;60.70;;;;;;5027796;28;80563;-63
2020/12/05 04:11:59;;;;;;;1.38;0.40;;;3.70;60.80;;;;;;5027879;28;80720;-62
2020/12/05 04:14:24;;;;;;;2.55;0.30;;;3.70;60.70;;;;;;5026433;28;83557;-62
2020/12/05 04:16:50;;;;;;;1.05;0.32;;;3.70;60.60;;;;;;5027750;28;80713;-64
2020/12/05 04:19:16;;;;;;;1.88;0.40;;;3.70;60.60;;;;;;5027470;28;80501;-62
2020/12/05 04:21:42;;;;;;;1.63;0.40;;;3.70;60.40;;;;;;5026045;28;82693;-62
2020/12/05 04:24:08;;;;;;;0.90;0.50;;;3.70;60.50;;;;;;5025888;28;81234;-62
2020/12/05 04:26:33;;;;;;;1.25;0.50;;;3.70;60.40;;;;;;5026565;28;80269;-62
2020/12/05 04:28:59;;;;;;;2.45;0.40;;;3.70;60.40;;;;;;5027110;28;81885;-62
2020/12/05 04:31:25;;;;;;;1.75;0.40;;;3.70;60.30;;;;;;5026467;28;80448;-62
2020/12/05 04:33:50;;;;;;;1.23;0.40;;;3.70;60.30;;;;;;5026116;28;82721;-62
2020/12/05 04:36:16;;;;;;;1.48;0.28;;;3.70;60.30;;;;;;5027257;28;80755;-61
2020/12/05 04:38:42;;;;;;;1.20;0.30;;;3.70;60.20;;;;;;5026733;28;82723;-63
2020/12/05 04:41:08;;;;;;;2.10;0.32;;;3.80;60.10;;;;;;5026468;28;82502;-62
2020/12/05 04:43:35;;;;;;;0.88;0.25;;;3.80;59.90;;;;;;5026249;28;80069;-62
2020/12/05 04:46:02;;;;;;;0.88;0.20;;;3.80;59.80;;;;;;5025690;28;81459;-63
2020/12/05 04:48:33;;;;;;;1.52;0.10;;;3.80;59.60;;;;;;5026481;28;82090;-62
2020/12/05 04:51:03;;;;;;;0.70;0.10;;;3.80;59.40;;;;;;5028352;28;79934;-63
2020/12/05 04:53:31;;;;;;;2.05;0.20;;;3.80;59.40;;;;;;5029168;28;79773;-63
2020/12/05 04:56:00;;;;;;;1.45;0.32;;;3.90;59.40;;;;;;5027814;28;80198;-63
2020/12/05 04:58:26;;;;;;;1.08;0.35;;;3.80;59.50;;;;;;5027510;28;79919;-63
2020/12/05 05:00:55;;;;;;;0.70;0.20;;;3.80;59.60;;;;;;5027132;28;80301;-62
2020/12/05 05:03:23;;;;;;;0.95;0.25;;;3.80;59.70;;;;;;5026929;28;80695;-65
2020/12/05 05:05:53;;;;;;;1.48;0.38;;;3.80;59.70;;;;;;5026023;28;80011;-62
2020/12/05 05:08:19;;;;;;;1.77;0.43;;;3.80;59.70;;;;;;5027377;28;80850;-62
2020/12/05 05:10:45;;;;;;;2.70;0.20;;;3.80;59.70;;;;;;5025410;28;82516;-63
2020/12/05 05:13:18;;;;;;;0.82;0.10;;;3.80;59.60;;;;;;5025244;28;82625;-62
2020/12/05 05:15:44;;;;;;;1.05;0.30;;;3.80;59.50;;;;;;5026075;28;81430;-62
2020/12/05 05:18:11;;;;;;;5.85;1.02;;;3.80;59.40;;;;;;5025744;28;81305;-62
2020/12/05 05:20:42;;;;;;;6.63;1.63;;;3.80;59.50;;;;;;5027312;28;80590;-62
2020/12/05 05:23:17;;;;;;;8.35;2.25;;;3.80;59.50;;;;;;5027096;28;80376;-62
2020/12/05 05:26:00;;;;;;;4.35;1.88;;;3.80;59.50;;;;;;5025511;28;81256;-64
2020/12/05 05:28:38;;;;;;;5.70;1.15;;;3.80;59.60;;;;;;5026789;28;80462;-63
2020/12/05 05:31:19;;;;;;;4.07;1.05;;;3.80;59.70;;;;;;5025436;28;83509;-63
2020/12/05 05:33:51;;;;;;;3.80;0.80;;;3.80;59.80;;;;;;5026512;28;81068;-63
2020/12/05 05:36:28;;;;;;;5.35;1.10;;;3.70;59.70;;;;;;5026708;28;80093;-63
2020/12/05 05:39:08;;;;;;;2.80;1.13;;;3.70;59.90;;;;;;5024787;28;81421;-65
2020/12/05 05:41:39;;;;;;;4.18;0.80;;;3.70;60.10;;;;;;5024931;28;80843;-62
2020/12/05 05:44:10;;;;;;;1.60;0.40;;;3.70;60.10;;;;;;5024642;28;81021;-63
2020/12/05 05:46:46;;;;;;;1.48;0.45;;;3.60;60.20;;;;;;5028340;28;80834;-65
2020/12/05 05:49:25;;;;;;;1.83;0.20;;;3.60;60.20;;;;;;5029755;28;80720;-63
2020/12/05 05:51:51;;;;;;;1.83;0.40;;;3.60;60.30;;;;;;5028312;28;82574;-64
2020/12/05 05:54:28;;;;;;;1.38;0.28;;;3.60;60.30;;;;;;5028416;28;82543;-62
2020/12/05 05:57:04;;;;;;;1.95;0.60;;;3.60;60.20;;;;;;5028146;28;81174;-63
2020/12/05 05:59:32;;;;;;;1.95;0.40;;;3.60;60.20;;;;;;5028569;28;80103;-67
2020/12/05 06:01:59;;;;;;;2.15;0.35;;;3.60;60.10;;;;;;5031123;28;80678;-61
2020/12/05 06:04:36;;;;;;;0.22;0.08;;;3.60;60.30;;;;;;5032007;28;79959;-68
2020/12/05 06:07:05;;;;;;;1.00;0.20;;;3.60;60.30;;;;;;5030624;28;81503;-63
2020/12/05 06:09:40;;;;;;;0.63;0.10;;;3.60;60.30;;;;;;5031285;28;83174;-71
2020/12/05 06:12:08;;;;;;;0.80;0.35;;;3.60;60.30;;;;;;5029203;28;80763;-63
2020/12/05 06:14:34;;;;;;;0.75;0.20;;;3.60;60.30;;;;;;5029920;28;80432;-62
2020/12/05 06:17:00;;;;;;;1.20;0.43;;;3.60;60.30;;;;;;5030529;28;80812;-63
2020/12/05 06:19:26;;;;;;;0.45;0.10;;;3.60;60.30;;;;;;5027970;28;82246;-63
2020/12/05 06:21:56;;;;;;;2.20;0.47;;;3.60;60.30;;;;;;5028228;28;83444;-63
2020/12/05 06:25:00;;;;;;;2.85;0.30;;;3.60;60.40;;;;;;5029075;28;81140;-62
2020/12/05 06:27:27;;;;;;;0.70;0.30;;;3.60;60.50;;;;;;5000626;28;82999;-65
2020/12/05 06:29:53;;;;;;;0.40;0.10;;;3.60;60.40;;;;;;5030711;28;79942;-63
2020/12/05 06:32:40;;;;;;;3.15;0.30;;;3.60;60.60;;;;;;5030593;28;80280;-63
2020/12/05 06:35:21;;;;;;;0.80;0.20;;;3.60;60.80;;;;;;5028305;28;81073;-62
2020/12/05 06:37:54;;;;;;;2.20;0.45;;;3.50;61.10;;;;;;5029614;28;80482;-62
2020/12/05 06:40:21;;;;;;;1.08;0.20;;;3.50;61.20;;;;;;5027914;28;83613;-63
2020/12/05 06:42:49;;;;;;;0.95;0.17;;;3.40;61.40;;;;;;5027256;28;83138;-65
2020/12/05 06:45:27;;;;;;;1.15;0.32;;;3.40;61.50;;;;;;5029196;28;80687;-63
2020/12/05 06:48:12;;;;;;;1.70;0.30;;;3.40;61.70;;;;;;5028971;28;80222;-63
2020/12/05 06:50:40;;;;;;;0.90;0.30;;;3.40;61.80;;;;;;5028818;28;81152;-62
2020/12/05 06:53:29;;;;;;;1.58;0.30;;;3.40;61.90;;;;;;5029013;28;80248;-63
2020/12/05 06:55:55;;;;;;;0.80;0.15;;;3.40;61.90;;;;;;5023372;28;80550;-63
2020/12/05 06:58:26;;;;;;;1.50;0.40;;;3.40;61.90;;;;;;5028034;28;79757;-63
2020/12/05 07:00:52;;;;;;;1.40;0.80;;;3.40;61.80;;;;;;5027179;28;80618;-62
2020/12/05 07:03:31;;;;;;;1.13;0.32;;;3.40;61.60;;;;;;5029472;28;80473;-62
2020/12/05 07:05:58;;;;;;;3.42;0.30;;;3.50;61.40;;;;;;5027498;28;83320;-62
2020/12/05 07:08:37;;;;;;;1.27;0.55;;;3.50;61.40;;;;;;5029116;28;80839;-61
2020/12/05 07:11:12;;;;;;;0.93;0.28;;;3.50;61.50;;;;;;5028996;28;80546;-64
2020/12/05 07:13:42;;;;;;;1.23;0.50;;;3.50;61.80;;;;;;5029387;28;80195;-67
2020/12/05 07:16:13;;;;;;;1.60;0.43;;;3.50;62.00;;;;;;5028593;28;81705;-62
2020/12/05 07:18:54;;;;;;;3.85;0.60;;;3.50;62.00;;;;;;5029968;28;83898;-61
2020/12/05 07:21:21;;;;;;;3.75;1.52;;;3.60;61.90;;;;;;5030682;28;82965;-64
2020/12/05 07:23:48;;;;;;;1.25;0.45;;;3.60;61.90;;;;;;5029943;28;81365;-62
2020/12/05 07:26:14;;;;;;;1.30;0.50;;;3.70;61.80;;;;;;5029562;28;83126;-64
2020/12/05 07:28:49;;;;;;;1.27;0.60;;;3.70;61.50;;;;;;5029073;28;83452;-62
2020/12/05 07:31:16;;;;;;;0.85;0.50;;;3.80;61.40;;;;;;5028333;28;80522;-62
2020/12/05 07:33:43;;;;;;;1.60;0.50;;;3.80;61.40;;;;;;5027029;28;80131;-63
2020/12/05 07:36:11;;;;;;;2.92;0.65;;;3.90;61.10;;;;;;5028462;28;80865;-63
2020/12/05 07:38:39;;;;;;;1.50;0.68;;;3.90;61.20;;;;;;5026919;28;83274;-63
2020/12/05 07:41:17;;;;;;;3.17;0.88;;;3.90;61.10;;;;;;5028552;28;80628;-63
2020/12/05 07:43:43;;;;;;;2.35;0.38;;;3.90;60.60;;;;;;5028275;28;80249;-62
2020/12/05 07:46:11;;;;;;;2.15;0.70;;;3.90;60.30;;;;;;5028238;28;80573;-62
2020/12/05 07:48:38;;;;;;;1.38;0.52;;;4.00;60.20;;;;;;5028438;28;79834;-62
2020/12/05 07:51:14;;;;;;;2.13;0.75;;;4.00;60.20;;;;;;5028134;28;80629;-62
2020/12/05 07:53:41;;;;;;;1.13;0.45;;;4.00;60.10;;;;;;5026730;28;81637;-64
2020/12/05 07:56:15;;;;;;;2.03;0.65;;;4.00;60.00;;;;;;5028304;28;80639;-61
2020/12/05 07:59:02;;;;;;;3.20;0.40;;;4.10;60.00;;;;;;5027213;28;81534;-62
2020/12/05 08:01:28;;;;;;;1.55;0.73;;;4.10;59.70;;;;;;5026581;28;81154;-63
2020/12/05 08:04:40;;;;;;;2.20;0.70;;;4.10;59.70;;;;;;5027341;28;82253;-62
2020/12/05 08:07:29;;;;;;;2.15;0.55;;;4.20;59.50;;;;;;4998670;28;83252;-61
2020/12/05 08:09:55;;;;;;;1.95;0.50;;;4.30;59.40;;;;;;5028440;28;80440;-62
2020/12/05 08:12:44;;;;;;;2.78;1.05;;;4.40;59.30;;;;;;5026993;28;79920;-63
2020/12/05 08:15:18;;;;;;;2.05;0.88;;;4.40;59.00;;;;;;5028141;28;79854;-66
2020/12/05 08:17:45;;;;;;;1.48;0.40;;;4.50;58.70;;;;;;5028041;28;80524;-62
2020/12/05 08:20:13;;;;;;;2.95;1.02;;;4.60;58.40;;;;;;5027531;28;80241;-63
2020/12/05 08:22:39;;;;;;;3.47;0.75;;;4.70;58.00;;;;;;5028015;28;80492;-63
2020/12/05 08:25:06;;;;;;;1.73;0.45;;;4.80;57.70;;;;;;5026136;28;80262;-63
2020/12/05 08:27:33;;;;;;;1.30;0.57;;;4.90;57.20;;;;;;5026176;28;81343;-63
2020/12/05 08:30:00;;;;;;;1.38;0.55;;;5.00;56.60;;;;;;5026023;28;82306;-63
2020/12/05 08:32:26;;;;;;;1.65;0.50;;;5.10;56.00;;;;;;5026445;28;82623;-62
2020/12/05 08:35:08;;;;;;;1.85;0.70;;;5.20;55.50;;;;;;5026285;28;81258;-64
2020/12/05 08:37:34;;;;;;;4.13;0.93;;;5.40;55.40;;;;;;5029166;28;79747;-64
2020/12/05 08:40:00;;;;;;;1.92;0.30;;;5.60;54.80;;;;;;5029596;28;79849;-64
2020/12/05 08:42:27;;;;;;;1.77;0.65;;;5.60;54.70;;;;;;5026564;28;83041;-62
2020/12/05 08:44:53;;;;;;;1.58;0.50;;;5.70;54.80;;;;;;5027796;28;80079;-64
2020/12/05 08:47:19;;;;;;;2.65;0.50;;;5.70;54.50;;;;;;5027435;28;80695;-68
2020/12/05 08:49:49;;;;;;;1.05;0.50;;;5.70;54.20;;;;;;5025846;28;80509;-68
2020/12/05 08:52:17;;;;;;;1.48;0.75;;;5.70;54.20;;;;;;5026127;28;79686;-67
2020/12/05 08:54:51;;;;;;;2.33;0.55;;;5.80;54.10;;;;;;5009439;28;80405;-68
2020/12/05 08:57:17;;;;;;;1.65;0.82;;;5.90;54.20;;;;;;5027397;28;81002;-69
2020/12/05 08:59:44;;;;;;;1.90;0.70;;;5.90;53.90;;;;;;5027689;28;79908;-71
2020/12/05 09:02:10;;;;;;;3.30;1.10;;;5.90;53.80;;;;;;5025379;28;80748;-68
2020/12/05 09:04:37;;;;;;;1.77;0.70;;;5.90;53.80;;;;;;5025884;28;81288;-66
2020/12/05 09:07:12;;;;;;;4.20;0.47;;;5.80;53.70;;;;;;5025366;28;82979;-64
2020/12/05 09:09:39;;;;;;;2.67;0.95;;;5.70;53.80;;;;;;5025712;28;80696;-67
2020/12/05 09:12:15;;;;;;;2.47;0.60;;;5.50;54.00;;;;;;5025345;28;79878;-68
2020/12/05 09:14:43;;;;;;;4.40;0.60;;;5.50;54.30;;;;;;5025235;28;79914;-69
2020/12/05 09:17:30;;;;;;;2.50;0.80;;;5.40;54.50;;;;;;5026806;28;80404;-66
2020/12/05 09:20:12;;;;;;;3.92;0.80;;;5.40;54.40;;;;;;5025510;28;80912;-65
2020/12/05 09:22:38;;;;;;;1.58;0.60;;;5.40;54.60;;;;;;5028791;28;81521;-65
2020/12/05 09:25:05;;;;;;;1.73;0.82;;;5.70;53.70;;;;;;5029099;28;82800;-67
2020/12/05 09:27:39;;;;;;;1.88;0.47;;;6.10;52.20;;;;;;5029219;28;80754;-65
2020/12/05 09:30:13;;;;;;;1.58;0.40;;;6.70;50.80;;;;;;5028754;28;81588;-66
2020/12/05 09:32:41;;;;;;;2.17;0.50;;;7.30;49.10;;;;;;5030635;28;81019;-65
2020/12/05 09:35:08;;;;;;;1.65;0.80;;;7.90;47.50;;;;;;5030471;28;80202;-66
2020/12/05 09:37:34;;;;;;;0.80;0.32;;;8.10;46.90;;;;;;5028944;28;82736;-66
2020/12/05 09:40:00;;;;;;;1.42;0.52;;;8.30;46.30;;;;;;5028876;28;80362;-66
2020/12/05 09:42:26;;;;;;;2.70;0.50;;;8.30;46.50;;;;;;5030161;28;80890;-65
2020/12/05 09:44:52;;;;;;;1.13;0.40;;;8.30;46.60;;;;;;5030500;28;80885;-67
2020/12/05 09:47:18;;;;;;;1.75;0.60;;;8.80;45.30;;;;;;5030324;28;80566;-66
2020/12/05 09:49:44;;;;;;;5.15;1.25;;;9.00;44.30;;;;;;5030932;28;79856;-66
2020/12/05 09:52:10;;;;;;;1.58;0.68;;;9.00;44.10;;;;;;5029252;28;81550;-65
2020/12/05 09:54:36;;;;;;;4.65;1.23;;;8.80;44.60;;;;;;5032157;28;80205;-66
2020/12/05 09:57:06;;;;;;;1.95;0.40;;;9.00;44.70;;;;;;5031793;28;80313;-65
2020/12/05 09:59:32;;;;;;;3.13;0.70;;;9.20;44.20;;;;;;5029592;28;80573;-64
2020/12/05 10:02:03;;;;;;;1.60;0.43;;;9.80;43.30;;;;;;5030817;28;81174;-70
2020/12/05 10:04:29;;;;;;;3.53;0.77;;;10.50;41.80;;;;;;5029850;28;80010;-70
2020/12/05 10:06:54;;;;;;;1.30;0.38;;;10.80;41.40;;;;;;5029622;28;79716;-65
2020/12/05 10:09:20;;;;;;;1.35;0.40;;;11.50;40.20;;;;;;5028934;28;82794;-66
2020/12/05 10:11:46;;;;;;;1.08;0.32;;;12.40;37.80;;;;;;5029385;28;82180;-65
2020/12/05 10:14:12;;;;;;;1.50;0.40;;;12.10;37.70;;;;;;5030387;28;80638;-65
2020/12/05 10:16:38;;;;;;;1.33;0.40;;;11.60;39.40;;;;;;5031130;28;80342;-66
2020/12/05 10:19:04;;;;;;;2.10;0.40;;;11.90;38.90;;;;;;5029093;28;81289;-67
2020/12/05 10:21:31;;;;;;;2.55;0.50;;;12.40;37.70;;;;;;5031010;28;79841;-68
2020/12/05 10:23:57;;;;;;;2.78;0.98;;;12.60;37.00;;;;;;5029490;28;80149;-67
2020/12/05 10:26:23;;;;;;;1.45;0.30;;;13.40;35.70;;;;;;5029345;28;83520;-66
2020/12/05 10:28:49;;;;;;;1.25;0.40;;;13.80;34.60;;;;;;5028635;28;82653;-66
2020/12/05 10:31:15;;;;;;;2.05;0.43;;;13.90;34.60;;;;;;5027999;28;79829;-66
2020/12/05 10:33:40;;;;;;;3.13;0.50;;;13.90;34.30;;;;;;5030435;28;80363;-71
2020/12/05 10:36:06;;;;;;;2.70;0.60;;;13.80;34.80;;;;;;5030186;28;80609;-68
2020/12/05 10:38:32;;;;;;;2.72;0.80;;;14.40;34.00;;;;;;5027993;28;82113;-69
2020/12/05 10:40:58;;;;;;;2.10;0.52;;;14.90;33.30;;;;;;5027970;28;81550;-68
2020/12/05 10:43:24;;;;;;;1.55;0.63;;;14.90;32.80;;;;;;5027874;28;83266;-68
2020/12/05 10:45:49;;;;;;;2.88;0.30;;;15.10;33.10;;;;;;5028164;28;79866;-69
2020/12/05 10:48:15;;;;;;;2.08;0.30;;;15.60;32.30;;;;;;5029735;28;79925;-69
2020/12/05 10:50:41;;;;;;;1.20;0.20;;;14.00;33.70;;;;;;5030446;28;81071;-66
2020/12/05 10:53:07;;;;;;;2.03;0.45;;;12.30;36.20;;;;;;5029643;28;82911;-71
2020/12/05 10:55:33;;;;;;;1.27;0.50;;;11.00;38.70;;;;;;5029751;28;80024;-69
2020/12/05 10:57:59;;;;;;;3.30;0.55;;;10.40;40.20;;;;;;5030581;28;79734;-69
2020/12/05 11:00:25;;;;;;;2.22;0.50;;;9.80;41.30;;;;;;5029907;28;81052;-69
2020/12/05 11:02:50;;;;;;;1.55;0.40;;;10.80;40.10;;;;;;5028092;28;80053;-68
2020/12/05 11:05:16;;;;;;;2.08;0.47;;;12.60;36.70;;;;;;5027525;28;83217;-65
2020/12/05 11:07:42;;;;;;;3.97;0.68;;;14.20;34.70;;;;;;5027391;28;80002;-68
2020/12/05 11:10:08;;;;;;;1.48;0.65;;;15.60;32.30;;;;;;5028603;28;79821;-70
2020/12/05 11:12:34;;;;;;;2.90;0.43;;;16.60;30.60;;;;;;5028754;28;80674;-69
2020/12/05 11:15:00;;;;;;;2.05;0.32;;;15.40;31.40;;;;;;5027339;28;82559;-65
2020/12/05 11:17:26;;;;;;;2.47;0.30;;;14.50;32.50;;;;;;5028800;28;80652;-68
2020/12/05 11:19:52;;;;;;;2.20;0.50;;;13.20;34.50;;;;;;5028747;28;80523;-66
2020/12/05 11:22:18;;;;;;;1.88;0.68;;;13.50;34.50;;;;;;5026830;28;82684;-65
2020/12/05 11:24:44;;;;;;;1.90;0.77;;;14.10;33.80;;;;;;5027116;28;82432;-67
2020/12/05 11:27:09;;;;;;;1.80;0.40;;;14.40;33.10;;;;;;5027191;28;80018;-66
2020/12/05 11:29:35;;;;;;;1.38;0.30;;;14.00;33.40;;;;;;5028289;28;80518;-68
2020/12/05 11:32:01;;;;;;;2.28;0.50;;;13.00;35.00;;;;;;5026933;28;82431;-69
2020/12/05 11:34:27;;;;;;;3.17;0.80;;;13.10;35.40;;;;;;5027064;28;79883;-69
2020/12/05 11:36:53;;;;;;;3.33;0.70;;;14.70;33.20;;;;;;5026733;28;80273;-66
2020/12/05 11:39:19;;;;;;;1.45;0.40;;;16.10;31.40;;;;;;5026469;28;81584;-65
2020/12/05 11:41:47;;;;;;;1.25;0.38;;;16.70;30.20;;;;;;5026718;28;80968;-67
2020/12/05 11:44:13;;;;;;;1.02;0.32;;;16.00;30.80;;;;;;5026460;28;83175;-67
2020/12/05 11:46:39;;;;;;;1.23;0.32;;;15.00;32.00;;;;;;5025839;28;82960;-68
2020/12/05 11:49:05;;;;;;;3.58;0.30;;;13.30;34.20;;;;;;5026397;28;82907;-68
2020/12/05 11:51:30;;;;;;;2.97;0.75;;;12.10;36.30;;;;;;5026528;28;81054;-66
2020/12/05 11:53:56;;;;;;;2.22;0.50;;;11.70;37.30;;;;;;5026326;28;82809;-68
2020/12/05 11:56:22;;;;;;;0.82;0.28;;;11.90;37.30;;;;;;5028450;28;80220;-70
2020/12/05 11:58:48;;;;;;;2.58;0.50;;;13.60;34.90;;;;;;5028043;28;80463;-67
2020/12/05 12:01:14;;;;;;;1.52;0.52;;;13.90;34.10;;;;;;5025732;28;81277;-69
2020/12/05 12:03:40;;;;;;;2.20;0.30;;;14.20;34.00;;;;;;5028345;28;80133;-67
2020/12/05 12:06:12;;;;;;;1.15;0.40;;;15.10;33.00;;;;;;5027871;28;80849;-68
2020/12/05 12:08:38;;;;;;;1.33;0.30;;;16.60;31.00;;;;;;5026240;28;81176;-66
2020/12/05 12:11:04;;;;;;;1.00;0.32;;;17.90;29.10;;;;;;5026226;28;82305;-66
2020/12/05 12:13:30;;;;;;;1.48;0.40;;;16.40;30.40;;;;;;5026305;28;79910;-65
2020/12/05 12:15:55;;;;;;;0.98;0.22;;;15.60;31.80;;;;;;5026100;28;80019;-67
2020/12/05 12:18:21;;;;;;;1.25;0.20;;;15.80;31.50;;;;;;5027130;28;80958;-67
2020/12/05 12:20:47;;;;;;;2.05;0.50;;;15.90;31.60;;;;;;5027990;28;80246;-69
2020/12/05 12:23:13;;;;;;;1.52;0.50;;;15.00;32.60;;;;;;5026412;28;80762;-69
2020/12/05 12:25:39;;;;;;;1.63;0.40;;;13.50;34.70;;;;;;5027806;28;80735;-66
2020/12/05 12:28:04;;;;;;;1.50;0.60;;;13.20;35.60;;;;;;5026161;28;80007;-67
2020/12/05 12:30:30;;;;;;;1.50;0.47;;;13.60;35.20;;;;;;5026077;28;80759;-68
2020/12/05 12:32:57;;;;;;;1.42;0.40;;;13.20;35.90;;;;;;5025989;28;82681;-68
2020/12/05 12:35:23;;;;;;;2.90;0.40;;;12.50;37.20;;;;;;5026499;28;79920;-67
2020/12/05 12:37:49;;;;;;;2.08;0.90;;;12.20;38.20;;;;;;5026034;28;80059;-66
2020/12/05 12:40:14;;;;;;;2.47;0.68;;;12.10;38.50;;;;;;5026034;28;81854;-65
2020/12/05 12:42:40;;;;;;;2.20;0.60;;;11.80;39.40;;;;;;5026219;28;81116;-66
2020/12/05 12:45:06;;;;;;;2.83;0.70;;;11.90;39.60;;;;;;5025712;28;81184;-68
2020/12/05 12:50:02;;;;;;;2.55;1.02;;;12.40;38.70;;;;;;5026050;28;79898;-68
2020/12/05 12:52:28;;;;;;;1.85;0.77;;;13.00;37.40;;;;;;5025758;28;82585;-66
2020/12/05 12:54:54;;;;;;;2.80;0.80;;;13.70;36.40;;;;;;5028682;28;80797;-68
2020/12/05 12:57:21;;;;;;;3.15;1.30;;;14.50;35.20;;;;;;5029404;28;82707;-70
2020/12/05 12:59:47;;;;;;;3.75;0.98;;;15.90;33.20;;;;;;5029054;28;80780;-66
2020/12/05 13:02:13;;;;;;;3.75;1.50;;;17.40;30.60;;;;;;5029469;28;82725;-68
2020/12/05 13:04:39;;;;;;;1.88;0.60;;;17.40;30.60;;;;;;5029459;28;83535;-69